createdAt,value
2023-03-26T00:01:27.489Z,47.33
2023-03-26T00:04:05.839Z,47.78
2023-03-26T00:07:03.660Z,47.77
2023-03-26T00:09:39.100Z,48.11
2023-03-26T00:12:19.969Z,46.63
2023-03-26T00:14:56.466Z,48.11
2023-03-26T00:17:44.166Z,47.67
2023-03-26T00:20:11.446Z,47.00
2023-03-26T00:22:45.881Z,47.62
2023-03-26T00:25:14.488Z,48.60
2023-03-26T00:27:44.584Z,47.46
2023-03-26T00:30:12.677Z,48.15
2023-03-26T00:33:06.269Z,48.10
2023-03-26T00:36:03.992Z,47.36
2023-03-26T00:38:31.874Z,48.69
2023-03-26T00:47:00.321Z,48.30
2023-03-26T00:49:50.976Z,47.57
2023-03-26T00:52:21.549Z,48.96
2023-03-26T00:54:52.720Z,48.27
2023-03-26T00:57:34.861Z,47.29
2023-03-26T01:00:16.567Z,48.52
2023-03-26T01:02:45.399Z,49.05
2023-03-26T01:06:05.877Z,48.80
2023-03-26T01:09:02.846Z,48.48
2023-03-26T01:17:30.718Z,50.98
2023-03-26T01:20:28.508Z,50.46
2023-03-26T01:23:05.547Z,50.81
2023-03-26T01:25:53.067Z,50.08
2023-03-26T01:28:23.312Z,50.47
2023-03-26T01:34:21.773Z,49.27
2023-03-26T01:37:24.321Z,50.94
2023-03-26T01:40:08.904Z,52.00
2023-03-26T01:42:48.686Z,50.19
2023-03-26T01:45:26.841Z,53.05
2023-03-26T01:47:56.378Z,51.83
2023-03-26T01:50:23.381Z,50.88
2023-03-26T01:53:07.906Z,51.61
2023-03-26T01:56:05.654Z,52.26
2023-03-26T01:58:51.993Z,53.49
2023-03-26T02:01:46.932Z,51.89
2023-03-26T02:04:53.728Z,53.15
2023-03-26T02:07:45.857Z,53.01
2023-03-26T02:10:24.476Z,53.54
2023-03-26T02:12:51.961Z,55.23
2023-03-26T02:15:18.984Z,55.85
2023-03-26T02:17:49.860Z,56.21
2023-03-26T02:20:36.481Z,55.82
2023-03-26T02:23:18.066Z,58.06
2023-03-26T02:25:46.307Z,56.83
2023-03-26T02:31:11.273Z,62.14
2023-03-26T02:33:47.958Z,57.38
2023-03-26T02:36:30.244Z,57.73
2023-03-26T02:39:04.734Z,57.44
2023-03-26T02:41:34.053Z,57.27
2023-03-26T02:44:03.408Z,60.26
2023-03-26T02:46:41.755Z,59.96
2023-03-26T02:49:11.645Z,58.15
2023-03-26T02:51:42.522Z,59.07
2023-03-26T02:54:10.634Z,59.49
2023-03-26T02:56:59.713Z,59.17
2023-03-26T02:59:26.942Z,61.65
2023-03-26T03:01:54.931Z,61.13
2023-03-26T03:04:25.250Z,56.79
2023-03-26T03:06:57.969Z,56.61
2023-03-26T03:09:25.551Z,60.53
2023-03-26T03:11:55.939Z,56.80
2023-03-26T03:14:31.880Z,55.93
2023-03-26T03:17:25.308Z,55.64
2023-03-26T03:20:07.465Z,55.10
2023-03-26T03:22:38.929Z,58.65
2023-03-26T03:25:28.655Z,59.12
2023-03-26T03:28:18.349Z,54.68
2023-03-26T03:37:22.181Z,63.36
2023-03-26T03:40:03.601Z,60.62
2023-03-26T03:42:41.120Z,60.40
2023-03-26T03:45:27.185Z,60.62
2023-03-26T03:48:02.363Z,58.81
2023-03-26T03:50:38.994Z,61.73
2023-03-26T03:53:21.682Z,61.65
2023-03-26T03:55:59.980Z,63.35
2023-03-26T03:58:44.467Z,63.01
2023-03-26T04:01:16.762Z,58.59
2023-03-26T04:03:47.309Z,60.27
2023-03-26T04:06:20.096Z,59.31
2023-03-26T04:08:56.642Z,58.32
2023-03-26T04:11:50.010Z,56.62
2023-03-26T04:14:28.640Z,60.30
2023-03-26T04:19:47.075Z,59.46
2023-03-26T04:22:20.941Z,56.91
2023-03-26T04:25:01.752Z,58.50
2023-03-26T04:27:37.010Z,61.29
2023-03-26T04:30:06.848Z,58.88
2023-03-26T04:32:42.101Z,57.78
2023-03-26T04:35:17.013Z,56.45
2023-03-26T04:37:47.957Z,58.32
2023-03-26T04:40:43.552Z,56.28
2023-03-26T04:43:28.327Z,57.52
2023-03-26T04:46:07.139Z,58.06
2023-03-26T04:48:38.158Z,60.90
2023-03-26T04:51:29.220Z,57.86
2023-03-26T04:54:04.581Z,57.12
2023-03-26T04:56:56.337Z,57.48
2023-03-26T04:59:35.294Z,56.48
2023-03-26T05:02:06.971Z,55.54
2023-03-26T05:04:56.542Z,54.34
2023-03-26T05:07:35.934Z,55.60
2023-03-26T05:10:06.499Z,58.09
2023-03-26T05:12:39.176Z,59.19
2023-03-26T05:15:20.984Z,57.00
2023-03-26T05:18:02.668Z,56.10
2023-03-26T05:20:39.125Z,57.64
2023-03-26T05:23:21.198Z,57.19
2023-03-26T05:28:35.222Z,57.75
2023-03-26T05:31:07.872Z,57.34
2023-03-26T05:36:24.320Z,58.92
2023-03-26T05:38:52.646Z,59.11
2023-03-26T05:41:19.794Z,57.93
2023-03-26T05:43:47.986Z,56.76
2023-03-26T05:46:15.783Z,58.63
2023-03-26T05:49:02.765Z,60.40
2023-03-26T05:51:39.771Z,62.24
2023-03-26T05:54:12.347Z,62.05
2023-03-26T05:56:43.151Z,60.88
2023-03-26T05:59:37.848Z,60.15
2023-03-26T06:02:09.583Z,62.08
2023-03-26T06:04:42.991Z,61.28
2023-03-26T06:07:27.458Z,61.18
2023-03-26T06:09:58.846Z,59.09
2023-03-26T06:12:29.074Z,57.32
2023-03-26T06:14:56.057Z,57.67
2023-03-26T06:17:24.359Z,57.44
2023-03-26T06:20:03.200Z,58.05
2023-03-26T06:22:32.014Z,57.78
2023-03-26T06:25:06.767Z,58.49
2023-03-26T06:27:41.063Z,57.36
2023-03-26T06:30:16.675Z,57.66
2023-03-26T06:32:50.124Z,58.59
2023-03-26T06:35:17.340Z,57.23
2023-03-26T06:37:44.344Z,57.65
2023-03-26T06:40:11.990Z,56.82
2023-03-26T06:43:09.090Z,57.49
2023-03-26T06:45:45.882Z,57.06
2023-03-26T06:48:12.823Z,55.37
2023-03-26T06:50:39.740Z,57.66
2023-03-26T06:53:06.744Z,56.89
2023-03-26T06:55:33.694Z,56.52
2023-03-26T06:58:14.845Z,56.38
2023-03-26T07:01:02.777Z,55.27
2023-03-26T07:03:39.588Z,55.47
2023-03-26T07:06:13.261Z,55.12
2023-03-26T07:08:43.473Z,54.54
2023-03-26T07:11:18.526Z,54.45
2023-03-26T07:14:01.785Z,54.37
2023-03-26T07:16:35.284Z,54.58
2023-03-26T07:19:06.309Z,54.90
2023-03-26T07:21:40.171Z,55.13
2023-03-26T07:24:20.225Z,55.08
2023-03-26T07:27:24.548Z,55.05
2023-03-26T07:30:23.590Z,54.70
2023-03-26T07:33:30.942Z,54.72
2023-03-26T07:36:31.295Z,54.81
2023-03-26T07:39:22.082Z,56.30
2023-03-26T07:41:55.301Z,56.66
2023-03-26T07:45:03.001Z,58.13
2023-03-26T07:47:38.164Z,56.98
2023-03-26T07:50:06.072Z,55.40
2023-03-26T07:52:34.285Z,55.17
2023-03-26T07:55:01.606Z,57.15
2023-03-26T07:57:45.684Z,55.65
2023-03-26T08:00:28.325Z,55.51
2023-03-26T08:03:15.722Z,55.17
2023-03-26T08:09:20.941Z,58.22
2023-03-26T08:11:57.292Z,57.92
2023-03-26T08:14:53.021Z,58.28
2023-03-26T08:17:37.172Z,59.47
2023-03-26T08:20:31.306Z,58.10
2023-03-26T08:23:03.928Z,58.05
2023-03-26T08:25:40.624Z,57.43
2023-03-26T08:29:16.788Z,59.54
2023-03-26T08:31:46.859Z,59.97
2023-03-26T08:34:14.378Z,59.70
2023-03-26T08:36:47.369Z,58.28
2023-03-26T08:39:23.902Z,58.18
2023-03-26T08:42:53.203Z,60.37
2023-03-26T08:45:49.167Z,59.28
2023-03-26T08:49:05.342Z,58.00
2023-03-26T08:51:55.176Z,59.59
2023-03-26T08:54:57.329Z,59.91
2023-03-26T08:57:40.389Z,58.67
2023-03-26T09:03:25.669Z,58.37
2023-03-26T09:06:26.149Z,60.22
2023-03-26T09:09:31.310Z,58.90
2023-03-26T09:12:41.773Z,60.19
2023-03-26T09:15:41.903Z,57.44
2023-03-26T09:18:40.843Z,54.00
2023-03-26T09:21:39.343Z,52.46
2023-03-26T09:24:19.784Z,52.49
2023-03-26T09:27:08.871Z,52.88
2023-03-26T09:30:00.854Z,51.08
2023-03-26T09:32:47.861Z,50.61
2023-03-26T09:35:29.374Z,52.23
2023-03-26T09:38:19.663Z,53.36
2023-03-26T09:41:08.196Z,54.82
2023-03-26T09:44:15.874Z,55.42
2023-03-26T09:47:00.991Z,54.09
2023-03-26T09:50:15.538Z,54.77
2023-03-26T09:53:13.595Z,54.06
2023-03-26T09:56:14.350Z,55.54
2023-03-26T09:59:12.204Z,52.34
2023-03-26T10:02:13.216Z,52.89
2023-03-26T10:05:32.076Z,52.57
2023-03-26T10:08:20.544Z,52.71
2023-03-26T10:11:09.653Z,53.67
2023-03-26T10:14:01.611Z,51.94
2023-03-26T10:17:12.623Z,50.12
2023-03-26T10:20:14.497Z,46.78
2023-03-26T10:22:56.621Z,45.91
2023-03-26T10:25:45.569Z,45.93
2023-03-26T10:28:38.732Z,46.46
2023-03-26T10:31:14.839Z,46.55
2023-03-26T10:34:02.985Z,47.80
2023-03-26T10:36:58.451Z,48.17
2023-03-26T10:40:03.686Z,49.14
2023-03-26T10:43:24.193Z,47.43
2023-03-26T10:46:26.320Z,47.26
2023-03-26T10:49:09.481Z,44.14
2023-03-26T10:52:06.859Z,43.38
2023-03-26T10:54:52.895Z,41.27
2023-03-26T10:57:26.740Z,38.64
2023-03-26T10:59:58.086Z,41.33
2023-03-26T11:03:05.244Z,41.99
2023-03-26T11:06:08.007Z,42.98
2023-03-26T11:09:21.035Z,40.69
2023-03-26T11:12:32.587Z,42.99
2023-03-26T11:15:18.496Z,39.85
2023-03-26T11:18:16.595Z,39.08
2023-03-26T11:21:18.479Z,42.15
2023-03-26T11:27:21.335Z,40.53
2023-03-26T11:30:44.170Z,41.20
2023-03-26T11:33:22.547Z,40.18
2023-03-26T11:36:14.918Z,39.15
2023-03-26T11:38:47.733Z,39.11
2023-03-26T11:41:52.323Z,39.34
2023-03-26T11:44:36.673Z,38.94
2023-03-26T11:47:16.341Z,40.36
2023-03-26T11:49:56.204Z,41.07
2023-03-26T11:52:25.659Z,40.84
2023-03-26T11:55:04.735Z,38.62
2023-03-26T11:57:35.685Z,40.37
2023-03-26T12:00:17.379Z,38.89
2023-03-26T12:02:53.132Z,38.90
2023-03-26T12:05:36.634Z,39.44
2023-03-26T12:08:19.908Z,39.48
2023-03-26T12:11:00.600Z,36.01
2023-03-26T12:13:37.747Z,37.34
2023-03-26T12:16:57.076Z,38.45
2023-03-26T12:19:30.203Z,37.14
2023-03-26T12:21:57.622Z,37.60
2023-03-26T12:24:38.098Z,35.76
2023-03-26T12:27:31.140Z,38.19
2023-03-26T12:30:27.698Z,36.70
2023-03-26T12:33:18.713Z,36.37
2023-03-26T12:35:46.165Z,36.30
2023-03-26T12:38:39.548Z,36.48
2023-03-26T12:44:42.920Z,37.26
2023-03-26T12:44:58.848Z,39.50
2023-03-26T12:47:58.656Z,38.29
2023-03-26T12:50:57.716Z,38.97
2023-03-26T12:53:40.230Z,39.77
2023-03-26T12:56:46.928Z,39.05
2023-03-26T12:59:56.235Z,39.15
2023-03-26T13:03:01.617Z,39.19
2023-03-26T13:05:53.757Z,40.16
2023-03-26T13:09:07.007Z,39.48
2023-03-26T13:12:14.559Z,39.40
2023-03-26T13:19:11.245Z,39.91
2023-03-26T13:22:15.823Z,40.00
2023-03-26T13:25:23.449Z,38.81
2023-03-26T13:28:35.410Z,37.41
2023-03-26T13:31:22.306Z,39.78
2023-03-26T13:34:13.855Z,41.13
2023-03-26T13:40:26.196Z,40.05
2023-03-26T13:43:26.431Z,40.04
2023-03-26T13:46:13.996Z,40.12
2023-03-26T13:49:13.713Z,40.41
2023-03-26T13:52:01.894Z,39.99
2023-03-26T13:57:46.576Z,38.95
2023-03-26T14:00:38.003Z,38.98
2023-03-26T14:03:36.602Z,40.29
2023-03-26T14:06:32.329Z,40.82
2023-03-26T14:09:47.884Z,39.99
2023-03-26T14:12:27.075Z,39.33
2023-03-26T14:15:26.389Z,39.63
2023-03-26T14:18:42.886Z,39.57
2023-03-26T14:21:38.591Z,38.63
2023-03-26T14:24:52.993Z,37.91
2023-03-26T14:27:53.649Z,38.31
2023-03-26T14:30:55.228Z,37.27
2023-03-26T14:33:51.081Z,38.89
2023-03-26T14:36:43.106Z,39.68
2023-03-26T14:39:52.653Z,39.46
2023-03-26T14:42:43.170Z,39.45
2023-03-26T14:46:09.932Z,39.83
2023-03-26T14:48:37.437Z,38.24
2023-03-26T14:51:35.439Z,39.89
2023-03-26T14:54:12.357Z,39.62
2023-03-26T14:56:45.692Z,39.48
2023-03-26T14:59:27.911Z,39.60
2023-03-26T15:02:17.837Z,38.42
2023-03-26T15:05:34.242Z,39.70
2023-03-26T15:08:54.687Z,38.29
2023-03-26T15:12:12.596Z,39.00
2023-03-26T15:15:16.477Z,38.61
2023-03-26T15:18:27.890Z,38.21
2023-03-26T15:21:52.617Z,39.35
2023-03-26T15:24:48.220Z,39.36
2023-03-26T15:27:51.638Z,39.28
2023-03-26T15:30:54.767Z,39.16
2023-03-26T15:34:06.761Z,39.96
2023-03-26T15:37:01.920Z,40.29
2023-03-26T15:40:09.502Z,40.66
2023-03-26T15:42:54.395Z,39.26
2023-03-26T15:45:48.149Z,40.78
2023-03-26T15:48:58.691Z,40.70
2023-03-26T15:51:49.372Z,40.93
2023-03-26T15:54:59.750Z,38.76
2023-03-26T15:58:28.320Z,40.99
2023-03-26T16:01:30.340Z,39.68
2023-03-26T16:04:39.366Z,39.58
2023-03-26T16:07:58.012Z,41.10
2023-03-26T16:11:06.776Z,41.69
2023-03-26T16:14:13.932Z,41.46
2023-03-26T16:17:10.593Z,42.27
2023-03-26T16:19:50.560Z,42.87
2023-03-26T16:22:44.509Z,42.90
2023-03-26T16:25:29.351Z,42.99
2023-03-26T16:28:26.360Z,44.04
2023-03-26T16:31:37.819Z,44.13
2023-03-26T16:34:22.368Z,44.02
2023-03-26T16:37:01.281Z,44.29
2023-03-26T16:49:25.776Z,44.84
2023-03-26T16:52:26.472Z,45.49
2023-03-26T16:55:30.203Z,45.14
2023-03-26T16:58:43.435Z,45.76
2023-03-26T17:04:03.348Z,46.05
2023-03-26T17:06:39.948Z,45.94
2023-03-26T17:09:44.369Z,45.73
2023-03-26T17:12:51.163Z,46.21
2023-03-26T17:16:01.227Z,46.52
2023-03-26T17:18:39.575Z,46.11
2023-03-26T17:21:47.307Z,53.36
2023-03-26T17:24:57.137Z,55.23
2023-03-26T17:28:08.104Z,59.82
2023-03-26T17:30:58.789Z,65.05
2023-03-26T17:33:54.235Z,66.62
2023-03-26T17:36:44.522Z,68.02
2023-03-26T17:39:46.853Z,71.19
2023-03-26T17:42:39.409Z,72.14
2023-03-26T17:45:27.120Z,74.37
2023-03-26T17:48:07.566Z,74.11
2023-03-26T17:51:03.639Z,74.38
2023-03-26T17:53:44.020Z,74.73
2023-03-26T17:56:30.983Z,74.83
2023-03-26T17:59:17.489Z,77.06
2023-03-26T18:01:48.774Z,79.25
2023-03-26T18:04:29.878Z,77.34
2023-03-26T18:07:40.481Z,73.05
2023-03-26T18:10:43.090Z,72.33
2023-03-26T18:13:32.377Z,74.18
2023-03-26T18:16:57.875Z,76.91
2023-03-26T18:19:33.484Z,77.83
2023-03-26T18:22:06.314Z,77.49
2023-03-26T18:24:52.548Z,78.28
2023-03-26T18:27:41.305Z,79.89
2023-03-26T18:30:18.277Z,79.38
2023-03-26T18:33:10.362Z,79.50
2023-03-26T18:35:55.839Z,79.55
2023-03-26T18:38:35.912Z,79.52
2023-03-26T18:41:24.180Z,78.82
2023-03-26T18:43:58.507Z,78.02
2023-03-26T18:46:27.566Z,76.58
2023-03-26T18:48:59.048Z,78.08
2023-03-26T18:51:27.315Z,77.32
2023-03-26T18:54:14.822Z,78.13
2023-03-26T18:56:49.341Z,79.17
2023-03-26T18:59:34.167Z,77.53
2023-03-26T19:02:14.064Z,77.54
2023-03-26T19:04:52.671Z,75.87
2023-03-26T19:07:31.196Z,75.68
2023-03-26T19:10:06.760Z,72.65
2023-03-26T19:12:43.943Z,69.11
2023-03-26T19:15:28.295Z,69.61
2023-03-26T19:18:20.611Z,69.43
2023-03-26T19:21:30.575Z,67.36
2023-03-26T19:23:59.492Z,68.83
2023-03-26T19:26:44.945Z,69.53
2023-03-26T19:30:00.885Z,67.80
2023-03-26T19:32:33.042Z,68.84
2023-03-26T19:35:04.444Z,69.49
2023-03-26T19:37:51.146Z,70.23
2023-03-26T19:40:26.968Z,70.75
2023-03-26T19:43:09.327Z,70.03
2023-03-26T19:45:38.007Z,69.98
2023-03-26T19:52:30.606Z,70.18
2023-03-26T19:55:22.327Z,68.59
2023-03-26T19:57:51.885Z,68.60
2023-03-26T20:00:28.076Z,68.13
2023-03-26T20:03:04.041Z,68.78
2023-03-26T20:05:36.772Z,69.06
2023-03-26T20:08:16.537Z,69.68
2023-03-26T20:10:48.422Z,69.24
2023-03-26T20:16:31.003Z,67.29
2023-03-26T20:19:17.970Z,67.33
2023-03-26T20:21:48.286Z,67.96
2023-03-26T20:24:17.887Z,68.47
2023-03-26T20:26:51.496Z,68.87
2023-03-26T20:29:20.100Z,70.35
2023-03-26T20:31:48.744Z,72.79
2023-03-26T20:37:10.492Z,72.28
2023-03-26T20:39:58.739Z,73.35
2023-03-26T20:42:37.869Z,75.80
2023-03-26T20:45:35.035Z,76.48
2023-03-26T20:48:03.171Z,76.15
2023-03-26T20:50:31.717Z,77.66
2023-03-26T20:53:17.642Z,77.74
2023-03-26T20:55:58.072Z,77.21
2023-03-26T20:58:32.355Z,75.68
2023-03-26T21:01:06.103Z,75.05
2023-03-26T21:03:36.545Z,74.27
2023-03-26T21:06:06.534Z,73.17
2023-03-26T21:08:43.726Z,71.50
2023-03-26T21:11:27.281Z,68.73
2023-03-26T21:14:26.023Z,72.24
2023-03-26T21:16:55.796Z,72.09
2023-03-26T21:19:23.314Z,72.33
2023-03-26T21:22:03.960Z,73.68
2023-03-26T21:24:58.526Z,77.22
2023-03-26T21:28:01.547Z,79.22
2023-03-26T21:34:01.499Z,81.02
2023-03-26T21:36:49.437Z,79.80
2023-03-26T21:39:30.534Z,79.51
2023-03-26T21:42:10.447Z,79.31
2023-03-26T21:44:45.652Z,79.69
2023-03-26T21:47:34.620Z,80.11
2023-03-26T21:50:23.691Z,80.23
2023-03-26T21:52:57.401Z,80.00
2023-03-26T21:55:31.013Z,80.52
2023-03-26T21:58:30.151Z,81.42
2023-03-26T22:01:43.123Z,81.71
2023-03-26T22:04:24.163Z,80.02
2023-03-26T22:07:48.666Z,78.69
2023-03-26T22:10:22.106Z,78.01
2023-03-26T22:13:09.604Z,76.24
2023-03-26T22:16:00.134Z,74.75
2023-03-26T22:18:49.596Z,75.48
2023-03-26T22:21:17.830Z,75.97
2023-03-26T22:24:00.752Z,76.09
2023-03-26T22:26:29.568Z,75.27
2023-03-26T22:29:07.670Z,75.56
2023-03-26T22:31:35.077Z,75.67
2023-03-26T22:34:55.567Z,76.15
2023-03-26T22:37:29.094Z,74.91
2023-03-26T22:39:57.840Z,74.58
2023-03-26T22:42:32.832Z,73.74
2023-03-26T22:45:15.803Z,73.60
2023-03-26T22:48:03.569Z,73.62
2023-03-26T22:50:36.987Z,72.15
2023-03-26T22:53:16.994Z,71.41
2023-03-26T22:56:33.572Z,71.30
2023-03-26T22:59:01.682Z,70.26
2023-03-26T23:01:40.818Z,71.21
2023-03-26T23:04:30.657Z,71.03
2023-03-26T23:07:00.653Z,71.38
2023-03-26T23:09:45.421Z,71.88
2023-03-26T23:12:17.058Z,71.40
2023-03-26T23:14:46.255Z,71.99
2023-03-26T23:17:18.069Z,71.89
2023-03-26T23:19:51.868Z,71.44
2023-03-26T23:22:21.830Z,70.19
2023-03-26T23:24:52.446Z,69.67
2023-03-26T23:27:30.064Z,69.77
2023-03-26T23:30:15.373Z,70.96
2023-03-26T23:32:59.507Z,71.49
2023-03-26T23:35:39.788Z,70.14
2023-03-26T23:38:19.531Z,70.06
2023-03-26T23:40:57.264Z,69.87
2023-03-26T23:43:26.591Z,70.03
2023-03-26T23:45:56.435Z,68.40
2023-03-26T23:48:29.892Z,69.81
2023-03-26T23:51:04.521Z,71.43
2023-03-26T23:53:34.582Z,71.69
2023-03-26T23:56:07.830Z,72.80
2023-03-26T23:58:34.851Z,74.73
